Mitchell, SD

11:22 PM CDT on September 18, 2014 (GMT -0500)
Mitchell Municipal | Change Station
CLOSE
Current Station
Airport
Location: Mitchell,
Elevation: 1302 ft
Nearby Weather Stations

Elev 1302 ft 43.77 °N, 98.04 °W | Updated 29 minutes ago

Clear
Clear
67 °F
Feels Like 67 °F
N
17
Wind Variable Wind from SSE

Today
High -- | Low -- °F
--% Chance of Precip.
Yesterday
High -- | Low -- °F
Precip. -- in
7:14 AM 7:36 PM
Waning Crescent, 22% visible
Pressure 29.83 in
Visibility 10.0 miles
Clouds Few 3700 ft
Dew Point 58 °F
Humidity 73%
Rainfall 0.00 in
Snow Depth 0 in
UV 0 out of 12
Pollen 5.20 out of 12
Air Quality Not available.
Flu Activity Not available.
METAR KMHE 190353Z AUTO 16015KT 10SM FEW037 19/14 A2984 RMK AO2 PK WND 15026/0341 SLP100 T01940144

More Conditions Fewer Conditions

Pressure 29.83 in
Visibility 10.0 miles
Clouds Few 3700 ft
Dew Point 58 °F
Humidity 73%
Rainfall 0.00 in
Snow Depth 0 in
UV 0 out of 12
Pollen 5.20 out of 12
Air Quality Not available.
Flu Activity Not available.
METAR KMHE 190353Z AUTO 16015KT 10SM FEW037 19/14 A2984 RMK AO2 PK WND 15026/0341 SLP100 T01940144

More Conditions Fewer Conditions

10-Day Weather Forecast

Almanac

Astronomy

Sep. 18, 2014 Rise Set
Actual Time 7:14 AM CDT 7:36 PM CDT
Civil Twilight 6:46 AM CDT 8:05 PM CDT
Nautical Twilight 6:12 AM CDT 8:39 PM CDT
Astronomical Twilight 5:37 AM CDT 9:14 PM CDT
Moon 2:00 AM CDT (9/18) 4:35 PM CDT (9/18)
Length of Visible Light 13h 19m
Length of Day
12h 21m
Tomorrow will be 2m 58s shorter.
Waning Crescent, 22% of the Moon is Illuminated
Sep 19
Waning Crescent
Sep 24
New
Oct 1
First Quarter
Oct 8
Full
Oct 15
Last Quarter

Today's Extremes

State Highs State Lows

Community

WunderPhotos

Upload Photos

1,754,558 photos uploaded!

Nearby

Snow Depth

Station Depth Elevation
Blind Park 0 in 6890 ft

Earthquake Activity

City Distance Mag. Time & Date
No recent earthquake activity has been reported nearby.
Minimum magnitude displayed is 2.5.

Coastal Water Temperatures

Place Temperature
No Stations Reporting

Nearby Weather Stations